sensor_id;sensor_type;location;lat;lon;timestamp;temperature;humidity
25923;DHT22;13725;51.170;4.442;2022-10-23T00:00:37;14.70;99.90
25923;DHT22;13725;51.170;4.442;2022-10-23T00:03:04;14.70;99.90
25923;DHT22;13725;51.170;4.442;2022-10-23T00:05:30;14.60;99.90
25923;DHT22;13725;51.170;4.442;2022-10-23T00:07:58;14.60;99.90
25923;DHT22;13725;51.170;4.442;2022-10-23T00:10:25;14.60;99.90
25923;DHT22;13725;51.170;4.442;2022-10-23T00:12:51;14.60;99.90
25923;DHT22;13725;51.170;4.442;2022-10-23T00:15:20;14.50;99.90
25923;DHT22;13725;51.170;4.442;2022-10-23T00:17:46;14.60;99.90
25923;DHT22;13725;51.170;4.442;2022-10-23T00:20:13;14.50;99.90
25923;DHT22;13725;51.170;4.442;2022-10-23T00:22:39;14.60;99.90
25923;DHT22;13725;51.170;4.442;2022-10-23T00:25:06;14.60;99.90
25923;DHT22;13725;51.170;4.442;2022-10-23T00:27:32;14.60;99.90
25923;DHT22;13725;51.170;4.442;2022-10-23T00:29:58;14.70;99.90
25923;DHT22;13725;51.170;4.442;2022-10-23T00:32:24;14.80;99.90
25923;DHT22;13725;51.170;4.442;2022-10-23T00:34:50;14.70;99.90
25923;DHT22;13725;51.170;4.442;2022-10-23T00:37:16;14.60;99.90
25923;DHT22;13725;51.170;4.442;2022-10-23T00:39:41;14.70;99.90
25923;DHT22;13725;51.170;4.442;2022-10-23T00:42:12;14.70;99.90
25923;DHT22;13725;51.170;4.442;2022-10-23T00:47:07;14.60;99.90
25923;DHT22;13725;51.170;4.442;2022-10-23T00:49:33;14.60;99.90
25923;DHT22;13725;51.170;4.442;2022-10-23T00:52:02;14.60;99.90
25923;DHT22;13725;51.170;4.442;2022-10-23T00:54:33;14.60;99.90
25923;DHT22;13725;51.170;4.442;2022-10-23T00:57:03;14.60;99.90
25923;DHT22;13725;51.170;4.442;2022-10-23T00:59:30;14.50;99.90
25923;DHT22;13725;51.170;4.442;2022-10-23T01:01:56;14.50;99.90
25923;DHT22;13725;51.170;4.442;2022-10-23T01:04:23;14.50;99.90
25923;DHT22;13725;51.170;4.442;2022-10-23T01:07:21;14.50;99.90
25923;DHT22;13725;51.170;4.442;2022-10-23T01:10:01;14.50;99.90
25923;DHT22;13725;51.170;4.442;2022-10-23T01:15:36;14.60;99.90
25923;DHT22;13725;51.170;4.442;2022-10-23T01:18:17;14.50;99.90
25923;DHT22;13725;51.170;4.442;2022-10-23T01:20:59;14.50;99.90
25923;DHT22;13725;51.170;4.442;2022-10-23T01:29:13;14.60;99.90
25923;DHT22;13725;51.170;4.442;2022-10-23T01:34:27;14.60;99.90
25923;DHT22;13725;51.170;4.442;2022-10-23T01:36:56;14.50;99.90
25923;DHT22;13725;51.170;4.442;2022-10-23T01:39:45;14.70;99.90
25923;DHT22;13725;51.170;4.442;2022-10-23T01:42:28;14.60;99.90
25923;DHT22;13725;51.170;4.442;2022-10-23T01:45:01;14.60;99.90
25923;DHT22;13725;51.170;4.442;2022-10-23T01:47:35;14.70;99.90
25923;DHT22;13725;51.170;4.442;2022-10-23T01:50:06;14.80;99.90
25923;DHT22;13725;51.170;4.442;2022-10-23T01:52:33;14.70;99.90
25923;DHT22;13725;51.170;4.442;2022-10-23T01:55:02;14.70;99.90
25923;DHT22;13725;51.170;4.442;2022-10-23T01:57:32;14.80;99.90
25923;DHT22;13725;51.170;4.442;2022-10-23T02:00:09;14.80;99.90
25923;DHT22;13725;51.170;4.442;2022-10-23T02:02:50;14.80;99.90
25923;DHT22;13725;51.170;4.442;2022-10-23T02:05:22;14.70;99.90
25923;DHT22;13725;51.170;4.442;2022-10-23T02:07:48;14.80;99.90
25923;DHT22;13725;51.170;4.442;2022-10-23T02:10:15;14.80;99.90
25923;DHT22;13725;51.170;4.442;2022-10-23T02:12:59;14.80;99.90
25923;DHT22;13725;51.170;4.442;2022-10-23T02:15:36;14.80;99.90
25923;DHT22;13725;51.170;4.442;2022-10-23T02:18:07;14.90;99.90
25923;DHT22;13725;51.170;4.442;2022-10-23T02:20:42;14.80;99.90
25923;DHT22;13725;51.170;4.442;2022-10-23T02:23:28;14.80;99.90
25923;DHT22;13725;51.170;4.442;2022-10-23T02:29:00;14.70;99.90
25923;DHT22;13725;51.170;4.442;2022-10-23T02:31:30;14.60;99.90
25923;DHT22;13725;51.170;4.442;2022-10-23T02:33:56;14.50;99.90
25923;DHT22;13725;51.170;4.442;2022-10-23T02:36:23;14.50;99.90
25923;DHT22;13725;51.170;4.442;2022-10-23T02:38:49;14.50;99.90
25923;DHT22;13725;51.170;4.442;2022-10-23T02:41:24;14.50;99.90
25923;DHT22;13725;51.170;4.442;2022-10-23T02:46:52;14.50;99.90
25923;DHT22;13725;51.170;4.442;2022-10-23T02:54:54;14.40;99.90
25923;DHT22;13725;51.170;4.442;2022-10-23T03:00:11;14.40;99.90
25923;DHT22;13725;51.170;4.442;2022-10-23T03:02:41;14.40;99.90
25923;DHT22;13725;51.170;4.442;2022-10-23T03:05:14;14.60;99.90
25923;DHT22;13725;51.170;4.442;2022-10-23T03:07:41;14.50;99.90
25923;DHT22;13725;51.170;4.442;2022-10-23T03:10:10;14.50;99.90
25923;DHT22;13725;51.170;4.442;2022-10-23T03:12:36;14.60;99.90
25923;DHT22;13725;51.170;4.442;2022-10-23T03:15:05;14.50;99.90
25923;DHT22;13725;51.170;4.442;2022-10-23T03:17:30;14.50;99.90
25923;DHT22;13725;51.170;4.442;2022-10-23T03:19:58;14.50;99.90
25923;DHT22;13725;51.170;4.442;2022-10-23T03:22:24;14.50;99.90
25923;DHT22;13725;51.170;4.442;2022-10-23T03:24:50;14.60;99.90
25923;DHT22;13725;51.170;4.442;2022-10-23T03:27:16;14.60;99.90
25923;DHT22;13725;51.170;4.442;2022-10-23T03:29:42;14.60;99.90
25923;DHT22;13725;51.170;4.442;2022-10-23T03:32:07;14.60;99.90
25923;DHT22;13725;51.170;4.442;2022-10-23T03:34:33;14.50;99.90
25923;DHT22;13725;51.170;4.442;2022-10-23T03:37:02;14.50;99.90
25923;DHT22;13725;51.170;4.442;2022-10-23T03:39:29;14.50;99.90
25923;DHT22;13725;51.170;4.442;2022-10-23T03:41:55;14.50;99.90
25923;DHT22;13725;51.170;4.442;2022-10-23T03:44:21;14.40;99.90
25923;DHT22;13725;51.170;4.442;2022-10-23T03:46:47;14.40;99.90
25923;DHT22;13725;51.170;4.442;2022-10-23T03:49:13;14.50;99.90
25923;DHT22;13725;51.170;4.442;2022-10-23T03:51:42;14.40;99.90
25923;DHT22;13725;51.170;4.442;2022-10-23T03:54:08;14.50;99.90
25923;DHT22;13725;51.170;4.442;2022-10-23T03:56:36;14.40;99.90
25923;DHT22;13725;51.170;4.442;2022-10-23T03:59:02;14.40;99.90
25923;DHT22;13725;51.170;4.442;2022-10-23T04:01:28;14.40;99.90
25923;DHT22;13725;51.170;4.442;2022-10-23T04:03:54;14.40;99.90
25923;DHT22;13725;51.170;4.442;2022-10-23T04:06:21;14.40;99.90
25923;DHT22;13725;51.170;4.442;2022-10-23T04:08:46;14.40;99.90
25923;DHT22;13725;51.170;4.442;2022-10-23T04:11:14;14.30;99.90
25923;DHT22;13725;51.170;4.442;2022-10-23T04:13:44;14.30;99.90
25923;DHT22;13725;51.170;4.442;2022-10-23T04:16:10;14.30;99.90
25923;DHT22;13725;51.170;4.442;2022-10-23T04:18:38;14.30;99.90
25923;DHT22;13725;51.170;4.442;2022-10-23T04:21:04;14.30;99.90
25923;DHT22;13725;51.170;4.442;2022-10-23T04:23:31;14.30;99.90
25923;DHT22;13725;51.170;4.442;2022-10-23T04:25:58;14.30;99.90
25923;DHT22;13725;51.170;4.442;2022-10-23T04:28:25;14.40;99.90
25923;DHT22;13725;51.170;4.442;2022-10-23T04:30:50;14.40;99.90
25923;DHT22;13725;51.170;4.442;2022-10-23T04:33:16;14.40;99.90
25923;DHT22;13725;51.170;4.442;2022-10-23T04:35:43;14.40;99.90
25923;DHT22;13725;51.170;4.442;2022-10-23T04:38:09;14.50;99.90
25923;DHT22;13725;51.170;4.442;2022-10-23T04:40:35;14.50;99.90
25923;DHT22;13725;51.170;4.442;2022-10-23T04:43:02;14.40;99.90
25923;DHT22;13725;51.170;4.442;2022-10-23T04:45:32;14.40;99.90
25923;DHT22;13725;51.170;4.442;2022-10-23T04:47:58;14.40;99.90
25923;DHT22;13725;51.170;4.442;2022-10-23T04:50:24;14.40;99.90
25923;DHT22;13725;51.170;4.442;2022-10-23T04:53:09;14.30;99.90
25923;DHT22;13725;51.170;4.442;2022-10-23T04:55:35;14.30;99.90
25923;DHT22;13725;51.170;4.442;2022-10-23T04:58:09;14.20;99.90
25923;DHT22;13725;51.170;4.442;2022-10-23T05:00:35;14.20;99.90
25923;DHT22;13725;51.170;4.442;2022-10-23T05:03:01;14.30;99.90
25923;DHT22;13725;51.170;4.442;2022-10-23T05:05:33;14.20;99.90
25923;DHT22;13725;51.170;4.442;2022-10-23T05:08:06;14.30;99.90
25923;DHT22;13725;51.170;4.442;2022-10-23T05:10:50;14.40;99.90
25923;DHT22;13725;51.170;4.442;2022-10-23T05:13:17;14.40;99.90
25923;DHT22;13725;51.170;4.442;2022-10-23T05:15:46;14.30;99.90
25923;DHT22;13725;51.170;4.442;2022-10-23T05:18:22;14.40;99.90
25923;DHT22;13725;51.170;4.442;2022-10-23T05:20:55;14.40;99.90
25923;DHT22;13725;51.170;4.442;2022-10-23T05:23:23;14.40;99.90
25923;DHT22;13725;51.170;4.442;2022-10-23T05:25:53;14.30;99.90
25923;DHT22;13725;51.170;4.442;2022-10-23T05:28:20;14.40;99.90
25923;DHT22;13725;51.170;4.442;2022-10-23T05:30:46;14.40;99.90
25923;DHT22;13725;51.170;4.442;2022-10-23T05:33:13;14.30;99.90
25923;DHT22;13725;51.170;4.442;2022-10-23T05:35:42;14.20;99.90
25923;DHT22;13725;51.170;4.442;2022-10-23T05:38:09;14.20;99.90
25923;DHT22;13725;51.170;4.442;2022-10-23T05:40:36;14.30;99.90
25923;DHT22;13725;51.170;4.442;2022-10-23T05:43:06;14.40;99.90
25923;DHT22;13725;51.170;4.442;2022-10-23T05:45:45;14.40;99.90
25923;DHT22;13725;51.170;4.442;2022-10-23T05:48:20;14.40;99.90
25923;DHT22;13725;51.170;4.442;2022-10-23T05:51:15;14.50;99.90
25923;DHT22;13725;51.170;4.442;2022-10-23T05:53:59;14.30;99.90
25923;DHT22;13725;51.170;4.442;2022-10-23T05:56:45;14.40;99.90
25923;DHT22;13725;51.170;4.442;2022-10-23T05:59:34;14.30;99.90
25923;DHT22;13725;51.170;4.442;2022-10-23T06:02:13;14.20;99.90
25923;DHT22;13725;51.170;4.442;2022-10-23T06:04:50;14.20;99.90
25923;DHT22;13725;51.170;4.442;2022-10-23T06:07:31;14.20;99.90
25923;DHT22;13725;51.170;4.442;2022-10-23T06:09:58;14.30;99.90
25923;DHT22;13725;51.170;4.442;2022-10-23T06:12:24;14.20;99.90
25923;DHT22;13725;51.170;4.442;2022-10-23T06:14:51;14.30;99.90
25923;DHT22;13725;51.170;4.442;2022-10-23T06:17:21;14.40;99.90
25923;DHT22;13725;51.170;4.442;2022-10-23T06:19:47;14.30;99.90
25923;DHT22;13725;51.170;4.442;2022-10-23T06:22:16;14.20;99.90
25923;DHT22;13725;51.170;4.442;2022-10-23T06:24:48;14.20;99.90
25923;DHT22;13725;51.170;4.442;2022-10-23T06:27:19;14.20;99.90
25923;DHT22;13725;51.170;4.442;2022-10-23T06:29:45;14.30;99.90
25923;DHT22;13725;51.170;4.442;2022-10-23T06:32:11;14.30;99.90
25923;DHT22;13725;51.170;4.442;2022-10-23T06:34:38;14.30;99.90
25923;DHT22;13725;51.170;4.442;2022-10-23T06:37:06;14.30;99.90
25923;DHT22;13725;51.170;4.442;2022-10-23T06:39:38;14.40;99.90
25923;DHT22;13725;51.170;4.442;2022-10-23T06:42:17;14.40;99.90
25923;DHT22;13725;51.170;4.442;2022-10-23T06:44:52;14.40;99.90
25923;DHT22;13725;51.170;4.442;2022-10-23T06:47:36;14.40;99.90
25923;DHT22;13725;51.170;4.442;2022-10-23T06:50:22;14.40;99.90
25923;DHT22;13725;51.170;4.442;2022-10-23T06:52:50;14.40;99.90
25923;DHT22;13725;51.170;4.442;2022-10-23T06:55:18;14.50;99.90
25923;DHT22;13725;51.170;4.442;2022-10-23T06:57:45;14.50;99.90
25923;DHT22;13725;51.170;4.442;2022-10-23T07:00:11;14.60;99.90
25923;DHT22;13725;51.170;4.442;2022-10-23T07:02:47;14.60;99.90
25923;DHT22;13725;51.170;4.442;2022-10-23T07:05:13;14.60;99.90
25923;DHT22;13725;51.170;4.442;2022-10-23T07:07:38;14.60;99.90
25923;DHT22;13725;51.170;4.442;2022-10-23T07:10:05;14.60;99.90
25923;DHT22;13725;51.170;4.442;2022-10-23T07:12:41;14.60;99.90
25923;DHT22;13725;51.170;4.442;2022-10-23T07:15:35;14.70;99.90
25923;DHT22;13725;51.170;4.442;2022-10-23T07:18:03;14.60;99.90
25923;DHT22;13725;51.170;4.442;2022-10-23T07:20:43;14.60;99.90
25923;DHT22;13725;51.170;4.442;2022-10-23T07:23:10;14.60;99.90
25923;DHT22;13725;51.170;4.442;2022-10-23T07:25:38;14.60;99.90
25923;DHT22;13725;51.170;4.442;2022-10-23T07:28:05;14.80;99.90
25923;DHT22;13725;51.170;4.442;2022-10-23T07:30:30;14.80;99.90
25923;DHT22;13725;51.170;4.442;2022-10-23T07:32:58;15.00;99.90
25923;DHT22;13725;51.170;4.442;2022-10-23T07:35:38;15.00;99.90
25923;DHT22;13725;51.170;4.442;2022-10-23T07:38:09;15.10;99.90
25923;DHT22;13725;51.170;4.442;2022-10-23T07:40:41;15.20;99.90
25923;DHT22;13725;51.170;4.442;2022-10-23T07:43:09;15.20;99.90
25923;DHT22;13725;51.170;4.442;2022-10-23T07:45:35;15.20;99.90
25923;DHT22;13725;51.170;4.442;2022-10-23T07:48:10;15.30;99.90
25923;DHT22;13725;51.170;4.442;2022-10-23T07:51:03;15.30;99.90
25923;DHT22;13725;51.170;4.442;2022-10-23T07:53:34;15.30;99.90
25923;DHT22;13725;51.170;4.442;2022-10-23T07:56:25;15.40;99.90
25923;DHT22;13725;51.170;4.442;2022-10-23T07:59:13;15.40;99.90
25923;DHT22;13725;51.170;4.442;2022-10-23T08:01:40;15.40;99.90
25923;DHT22;13725;51.170;4.442;2022-10-23T08:04:10;15.40;99.90
25923;DHT22;13725;51.170;4.442;2022-10-23T08:06:43;15.50;99.90
25923;DHT22;13725;51.170;4.442;2022-10-23T08:09:09;15.50;99.90
25923;DHT22;13725;51.170;4.442;2022-10-23T08:11:37;15.60;99.90
25923;DHT22;13725;51.170;4.442;2022-10-23T08:14:06;15.60;99.90
25923;DHT22;13725;51.170;4.442;2022-10-23T08:16:36;15.60;99.90
25923;DHT22;13725;51.170;4.442;2022-10-23T08:19:03;15.60;99.90
25923;DHT22;13725;51.170;4.442;2022-10-23T08:21:29;15.70;99.90
25923;DHT22;13725;51.170;4.442;2022-10-23T08:23:57;15.60;99.90
25923;DHT22;13725;51.170;4.442;2022-10-23T08:26:24;15.60;99.90
25923;DHT22;13725;51.170;4.442;2022-10-23T08:28:51;15.60;99.90
25923;DHT22;13725;51.170;4.442;2022-10-23T08:31:19;15.60;99.90
25923;DHT22;13725;51.170;4.442;2022-10-23T08:34:04;15.60;99.90
25923;DHT22;13725;51.170;4.442;2022-10-23T08:36:31;15.80;99.90
25923;DHT22;13725;51.170;4.442;2022-10-23T08:38:58;15.80;99.90
25923;DHT22;13725;51.170;4.442;2022-10-23T08:41:32;15.90;99.90
25923;DHT22;13725;51.170;4.442;2022-10-23T08:44:28;15.80;99.90
25923;DHT22;13725;51.170;4.442;2022-10-23T08:47:05;15.90;99.90
25923;DHT22;13725;51.170;4.442;2022-10-23T08:49:49;16.00;99.90
25923;DHT22;13725;51.170;4.442;2022-10-23T08:52:39;16.10;99.90
25923;DHT22;13725;51.170;4.442;2022-10-23T08:58:02;16.30;99.90
25923;DHT22;13725;51.170;4.442;2022-10-23T09:00:31;16.40;99.90
25923;DHT22;13725;51.170;4.442;2022-10-23T09:03:00;16.40;99.90
25923;DHT22;13725;51.170;4.442;2022-10-23T09:05:53;16.50;99.90
25923;DHT22;13725;51.170;4.442;2022-10-23T09:11:10;16.50;99.90
25923;DHT22;13725;51.170;4.442;2022-10-23T09:16:47;16.70;99.90
25923;DHT22;13725;51.170;4.442;2022-10-23T09:19:23;16.60;99.90
25923;DHT22;13725;51.170;4.442;2022-10-23T09:21:53;16.70;99.90
25923;DHT22;13725;51.170;4.442;2022-10-23T09:24:22;16.80;99.90
25923;DHT22;13725;51.170;4.442;2022-10-23T09:26:50;16.90;99.90
25923;DHT22;13725;51.170;4.442;2022-10-23T09:29:30;16.90;99.90
25923;DHT22;13725;51.170;4.442;2022-10-23T09:32:05;17.00;99.90
25923;DHT22;13725;51.170;4.442;2022-10-23T09:34:33;16.90;99.90
25923;DHT22;13725;51.170;4.442;2022-10-23T09:37:17;17.00;99.90
25923;DHT22;13725;51.170;4.442;2022-10-23T09:39:45;17.00;99.90
25923;DHT22;13725;51.170;4.442;2022-10-23T09:42:24;17.10;99.90
25923;DHT22;13725;51.170;4.442;2022-10-23T09:44:52;17.00;99.90
25923;DHT22;13725;51.170;4.442;2022-10-23T09:47:22;17.20;99.90
25923;DHT22;13725;51.170;4.442;2022-10-23T09:49:57;16.90;99.90
25923;DHT22;13725;51.170;4.442;2022-10-23T09:52:29;16.90;99.90
25923;DHT22;13725;51.170;4.442;2022-10-23T09:55:00;17.00;99.90
25923;DHT22;13725;51.170;4.442;2022-10-23T09:57:36;17.20;99.90
25923;DHT22;13725;51.170;4.442;2022-10-23T10:02:41;17.40;99.90
25923;DHT22;13725;51.170;4.442;2022-10-23T10:05:27;17.40;99.90
25923;DHT22;13725;51.170;4.442;2022-10-23T10:08:00;17.40;99.90
25923;DHT22;13725;51.170;4.442;2022-10-23T10:10:35;17.40;99.90
25923;DHT22;13725;51.170;4.442;2022-10-23T10:15:58;17.80;99.90
25923;DHT22;13725;51.170;4.442;2022-10-23T10:18:42;17.80;99.90
25923;DHT22;13725;51.170;4.442;2022-10-23T10:23:51;18.00;99.90
25923;DHT22;13725;51.170;4.442;2022-10-23T10:26:33;18.10;99.90
25923;DHT22;13725;51.170;4.442;2022-10-23T10:34:38;18.30;99.90
25923;DHT22;13725;51.170;4.442;2022-10-23T10:45:26;18.40;99.90
25923;DHT22;13725;51.170;4.442;2022-10-23T10:51:21;18.70;99.90
25923;DHT22;13725;51.170;4.442;2022-10-23T10:56:32;19.20;99.90
25923;DHT22;13725;51.170;4.442;2022-10-23T10:59:13;19.20;99.90
25923;DHT22;13725;51.170;4.442;2022-10-23T11:01:47;19.30;99.90
25923;DHT22;13725;51.170;4.442;2022-10-23T11:07:06;19.50;99.90
25923;DHT22;13725;51.170;4.442;2022-10-23T11:09:32;19.50;99.90
25923;DHT22;13725;51.170;4.442;2022-10-23T11:11:57;19.30;99.90
25923;DHT22;13725;51.170;4.442;2022-10-23T11:14:25;19.40;99.90
25923;DHT22;13725;51.170;4.442;2022-10-23T11:17:07;19.50;99.90
25923;DHT22;13725;51.170;4.442;2022-10-23T11:19:46;19.60;99.90
25923;DHT22;13725;51.170;4.442;2022-10-23T11:22:35;19.50;99.90
25923;DHT22;13725;51.170;4.442;2022-10-23T11:25:49;19.40;99.90
25923;DHT22;13725;51.170;4.442;2022-10-23T11:32:05;19.30;99.90
25923;DHT22;13725;51.170;4.442;2022-10-23T11:37:25;19.00;99.90
25923;DHT22;13725;51.170;4.442;2022-10-23T11:48:05;19.00;99.90
25923;DHT22;13725;51.170;4.442;2022-10-23T11:58:53;19.80;99.90
25923;DHT22;13725;51.170;4.442;2022-10-23T12:06:44;20.20;99.90
25923;DHT22;13725;51.170;4.442;2022-10-23T12:09:43;20.10;99.90
25923;DHT22;13725;51.170;4.442;2022-10-23T12:14:38;19.90;99.90
25923;DHT22;13725;51.170;4.442;2022-10-23T12:19:51;19.90;99.90
25923;DHT22;13725;51.170;4.442;2022-10-23T12:22:17;20.00;99.90
25923;DHT22;13725;51.170;4.442;2022-10-23T12:27:47;20.10;99.90
25923;DHT22;13725;51.170;4.442;2022-10-23T12:36:08;20.00;99.90
25923;DHT22;13725;51.170;4.442;2022-10-23T12:38:49;20.30;99.90
25923;DHT22;13725;51.170;4.442;2022-10-23T12:41:16;20.50;99.90
25923;DHT22;13725;51.170;4.442;2022-10-23T12:43:52;20.60;99.90
25923;DHT22;13725;51.170;4.442;2022-10-23T12:46:40;20.50;99.90
25923;DHT22;13725;51.170;4.442;2022-10-23T12:49:16;20.40;99.90
25923;DHT22;13725;51.170;4.442;2022-10-23T12:51:42;20.50;99.90
25923;DHT22;13725;51.170;4.442;2022-10-23T12:54:21;20.60;99.90
25923;DHT22;13725;51.170;4.442;2022-10-23T12:56:48;20.70;99.90
25923;DHT22;13725;51.170;4.442;2022-10-23T12:59:17;20.70;99.90
25923;DHT22;13725;51.170;4.442;2022-10-23T13:01:44;20.70;99.90
25923;DHT22;13725;51.170;4.442;2022-10-23T13:04:16;20.70;99.90
25923;DHT22;13725;51.170;4.442;2022-10-23T13:06:44;20.70;99.90
25923;DHT22;13725;51.170;4.442;2022-10-23T13:12:07;20.80;99.90
25923;DHT22;13725;51.170;4.442;2022-10-23T13:14:41;21.00;99.90
25923;DHT22;13725;51.170;4.442;2022-10-23T13:17:18;21.30;99.90
25923;DHT22;13725;51.170;4.442;2022-10-23T13:19:44;21.50;99.90
25923;DHT22;13725;51.170;4.442;2022-10-23T13:22:18;21.30;99.90
25923;DHT22;13725;51.170;4.442;2022-10-23T13:24:45;21.30;99.90
25923;DHT22;13725;51.170;4.442;2022-10-23T13:27:24;21.40;99.90
25923;DHT22;13725;51.170;4.442;2022-10-23T13:29:51;21.30;99.90
25923;DHT22;13725;51.170;4.442;2022-10-23T13:32:25;21.10;99.90
25923;DHT22;13725;51.170;4.442;2022-10-23T13:34:54;21.00;99.90
25923;DHT22;13725;51.170;4.442;2022-10-23T13:37:26;21.10;99.90
25923;DHT22;13725;51.170;4.442;2022-10-23T13:40:16;20.90;99.90
25923;DHT22;13725;51.170;4.442;2022-10-23T13:42:46;21.00;99.90
25923;DHT22;13725;51.170;4.442;2022-10-23T13:45:18;21.10;99.90
25923;DHT22;13725;51.170;4.442;2022-10-23T13:47:44;21.00;99.90
25923;DHT22;13725;51.170;4.442;2022-10-23T13:50:09;21.20;99.90
25923;DHT22;13725;51.170;4.442;2022-10-23T13:52:36;21.10;99.90
25923;DHT22;13725;51.170;4.442;2022-10-23T13:55:09;20.90;99.90
25923;DHT22;13725;51.170;4.442;2022-10-23T13:57:38;20.90;99.90
25923;DHT22;13725;51.170;4.442;2022-10-23T14:00:04;20.90;99.90
25923;DHT22;13725;51.170;4.442;2022-10-23T14:02:37;20.90;99.90
25923;DHT22;13725;51.170;4.442;2022-10-23T14:05:03;20.90;99.90
25923;DHT22;13725;51.170;4.442;2022-10-23T14:07:30;20.90;99.90
25923;DHT22;13725;51.170;4.442;2022-10-23T14:09:55;20.80;99.90
25923;DHT22;13725;51.170;4.442;2022-10-23T14:12:21;20.80;99.90
25923;DHT22;13725;51.170;4.442;2022-10-23T14:14:53;20.60;99.90
25923;DHT22;13725;51.170;4.442;2022-10-23T14:17:19;20.60;99.90
25923;DHT22;13725;51.170;4.442;2022-10-23T14:19:45;20.60;99.90
25923;DHT22;13725;51.170;4.442;2022-10-23T14:22:11;20.60;99.90
25923;DHT22;13725;51.170;4.442;2022-10-23T14:24:37;20.60;99.90
25923;DHT22;13725;51.170;4.442;2022-10-23T14:27:03;20.70;99.90
25923;DHT22;13725;51.170;4.442;2022-10-23T14:29:29;20.70;99.90
25923;DHT22;13725;51.170;4.442;2022-10-23T14:31:54;20.60;99.90
25923;DHT22;13725;51.170;4.442;2022-10-23T14:34:20;20.40;99.90
25923;DHT22;13725;51.170;4.442;2022-10-23T14:36:46;20.30;99.90
25923;DHT22;13725;51.170;4.442;2022-10-23T14:39:12;20.30;99.90
25923;DHT22;13725;51.170;4.442;2022-10-23T14:41:37;20.30;99.90
25923;DHT22;13725;51.170;4.442;2022-10-23T14:44:05;20.30;99.90
25923;DHT22;13725;51.170;4.442;2022-10-23T14:46:32;20.20;99.90
25923;DHT22;13725;51.170;4.442;2022-10-23T14:49:00;20.20;99.90
25923;DHT22;13725;51.170;4.442;2022-10-23T14:51:29;20.20;99.90
25923;DHT22;13725;51.170;4.442;2022-10-23T14:53:59;20.30;99.90
25923;DHT22;13725;51.170;4.442;2022-10-23T14:56:30;20.30;99.90
25923;DHT22;13725;51.170;4.442;2022-10-23T14:58:58;20.30;99.90
25923;DHT22;13725;51.170;4.442;2022-10-23T15:01:28;20.30;99.90
25923;DHT22;13725;51.170;4.442;2022-10-23T15:03:54;20.20;99.90
25923;DHT22;13725;51.170;4.442;2022-10-23T15:06:21;20.20;99.90
25923;DHT22;13725;51.170;4.442;2022-10-23T15:08:53;20.00;99.90
25923;DHT22;13725;51.170;4.442;2022-10-23T15:11:22;19.90;99.90
25923;DHT22;13725;51.170;4.442;2022-10-23T15:13:49;19.90;99.90
25923;DHT22;13725;51.170;4.442;2022-10-23T15:16:15;19.90;99.90
25923;DHT22;13725;51.170;4.442;2022-10-23T15:18:41;19.80;99.90
25923;DHT22;13725;51.170;4.442;2022-10-23T15:21:07;19.80;99.90
25923;DHT22;13725;51.170;4.442;2022-10-23T15:23:35;19.80;99.90
25923;DHT22;13725;51.170;4.442;2022-10-23T15:26:05;19.80;99.90
25923;DHT22;13725;51.170;4.442;2022-10-23T15:28:32;19.70;99.90
25923;DHT22;13725;51.170;4.442;2022-10-23T15:30:57;19.70;99.90
25923;DHT22;13725;51.170;4.442;2022-10-23T15:33:24;19.70;99.90
25923;DHT22;13725;51.170;4.442;2022-10-23T15:35:50;19.70;99.90
25923;DHT22;13725;51.170;4.442;2022-10-23T15:38:16;19.70;99.90
25923;DHT22;13725;51.170;4.442;2022-10-23T15:40:42;19.70;99.90
25923;DHT22;13725;51.170;4.442;2022-10-23T15:43:10;19.70;99.90
25923;DHT22;13725;51.170;4.442;2022-10-23T15:45:37;19.70;99.90
25923;DHT22;13725;51.170;4.442;2022-10-23T15:48:03;19.70;99.90
25923;DHT22;13725;51.170;4.442;2022-10-23T15:50:28;19.70;99.90
25923;DHT22;13725;51.170;4.442;2022-10-23T15:52:54;19.60;99.90
25923;DHT22;13725;51.170;4.442;2022-10-23T15:55:20;19.60;99.90
25923;DHT22;13725;51.170;4.442;2022-10-23T15:57:45;19.70;99.90
25923;DHT22;13725;51.170;4.442;2022-10-23T16:00:12;19.70;99.90
25923;DHT22;13725;51.170;4.442;2022-10-23T16:02:40;19.70;99.90
25923;DHT22;13725;51.170;4.442;2022-10-23T16:05:06;19.80;99.90
25923;DHT22;13725;51.170;4.442;2022-10-23T16:07:32;19.80;99.90
25923;DHT22;13725;51.170;4.442;2022-10-23T16:09:58;19.70;99.90
25923;DHT22;13725;51.170;4.442;2022-10-23T16:12:24;19.70;99.90
25923;DHT22;13725;51.170;4.442;2022-10-23T16:14:49;19.60;99.90
25923;DHT22;13725;51.170;4.442;2022-10-23T16:17:16;19.60;99.90
25923;DHT22;13725;51.170;4.442;2022-10-23T16:19:44;19.60;99.90
25923;DHT22;13725;51.170;4.442;2022-10-23T16:22:10;19.60;99.90
25923;DHT22;13725;51.170;4.442;2022-10-23T16:24:35;19.60;99.90
25923;DHT22;13725;51.170;4.442;2022-10-23T16:27:01;19.60;99.90
25923;DHT22;13725;51.170;4.442;2022-10-23T16:29:27;19.50;99.90
25923;DHT22;13725;51.170;4.442;2022-10-23T16:31:55;19.50;99.90
25923;DHT22;13725;51.170;4.442;2022-10-23T16:34:21;19.40;99.90
25923;DHT22;13725;51.170;4.442;2022-10-23T16:36:47;19.20;99.90
25923;DHT22;13725;51.170;4.442;2022-10-23T16:39:15;19.20;99.90
25923;DHT22;13725;51.170;4.442;2022-10-23T16:42:00;19.00;99.90
25923;DHT22;13725;51.170;4.442;2022-10-23T16:44:36;19.00;99.90
25923;DHT22;13725;51.170;4.442;2022-10-23T16:47:04;19.00;99.90
25923;DHT22;13725;51.170;4.442;2022-10-23T16:49:30;19.10;99.90
25923;DHT22;13725;51.170;4.442;2022-10-23T16:51:57;19.00;99.90
25923;DHT22;13725;51.170;4.442;2022-10-23T16:54:22;18.90;99.90
25923;DHT22;13725;51.170;4.442;2022-10-23T16:56:48;18.90;99.90
25923;DHT22;13725;51.170;4.442;2022-10-23T16:59:14;18.90;99.90
25923;DHT22;13725;51.170;4.442;2022-10-23T17:01:40;18.90;99.90
25923;DHT22;13725;51.170;4.442;2022-10-23T17:04:06;18.80;99.90
25923;DHT22;13725;51.170;4.442;2022-10-23T17:06:35;18.80;99.90
25923;DHT22;13725;51.170;4.442;2022-10-23T17:09:01;18.70;99.90
25923;DHT22;13725;51.170;4.442;2022-10-23T17:11:30;18.70;99.90
25923;DHT22;13725;51.170;4.442;2022-10-23T17:14:07;18.60;99.90
25923;DHT22;13725;51.170;4.442;2022-10-23T17:16:35;18.60;99.90
25923;DHT22;13725;51.170;4.442;2022-10-23T17:19:03;18.60;99.90
25923;DHT22;13725;51.170;4.442;2022-10-23T17:21:34;18.60;99.90
25923;DHT22;13725;51.170;4.442;2022-10-23T17:24:01;18.60;99.90
25923;DHT22;13725;51.170;4.442;2022-10-23T17:26:27;18.60;99.90
25923;DHT22;13725;51.170;4.442;2022-10-23T17:28:56;18.60;99.90
25923;DHT22;13725;51.170;4.442;2022-10-23T17:33:52;18.60;99.90
25923;DHT22;13725;51.170;4.442;2022-10-23T17:36:19;18.60;99.90
25923;DHT22;13725;51.170;4.442;2022-10-23T17:38:46;18.70;99.90
25923;DHT22;13725;51.170;4.442;2022-10-23T17:41:15;18.70;99.90
25923;DHT22;13725;51.170;4.442;2022-10-23T17:43:42;18.70;99.90
25923;DHT22;13725;51.170;4.442;2022-10-23T17:46:09;18.80;99.90